Aérodrome :
LOGIN :

S'inscrire | Disclaimer

   EN    FR    IT 

 










Légende :    VFR   VFR Marginal   IFR   IFR Intensif   IFR Très Intensif
Visi : 
Plafond : 
>= 8 km
>= 3000ft
5 à 8 km
1000 à 3000 ft
1500m à 5 km
500 à 1000 ft
800 à 1500m
200 à 500 ft
< 800m
< 200 ft
Symboles :   Orages  Brouillard  Fortes neiges  Fortes précipitations  Vent > 20 kt
SIGMETs :   Divers  Orages  Givrage  Turbulence  Onde Orograph.  Cendres Volcan.







- Altitude de l'aérodrome : 1197 ft
- Code IATA : SPM


ETAD - Spangdahlem Ab

DERNIER METAR :
  • 191958Z AUTO 30003KT 9999 CLR 09/06 A3015 RMK AO2 SLP204 T00890060 TSNO

METARs EXPIRÉS :
  • 191858Z AUTO 29003KT 9999 CLR 10/06 A3014 RMK AO2 SLP200 T00990062 TSNO
  • 191758Z AUTO 31003KT 9999 CLR 11/07 A3012 RMK AO2 SLP194 60000 T01120065 10149 20112 52017 TSNO
  • 191733Z AUTO 33005KT 9999 FEW031 SCT048 12/07 A3011 RMK AO2 SLP189 TSNO

TAF TAF ETAD
Valide du 19 à 19h jusqu'au 21 à 01h UTC


191902Z 1919/2101 VRB06KT 9999 FEW020 QNH3013INS
BECMG 1921/1922 VRB06KT 5000 BR FEW002 QNH3015INS
BECMG 1923/1924 VRB06KT 0800 FG OVC002 QNH3016INS
BECMG 2007/2008 23006KT 5000 BR OVC003 QNH3018INS
BECMG 2009/2010 26009KT 9999 NSW FEW010 SCT025 QNH3014INS
BECMG 2022/2023 VRB06KT 5000 BR FEW005 SCT080 QNH3013INS TX15/2013Z TN06/2003Z LAST NO AMDS AFT 1920 NEXT 2004
Pas de NOTAMs connus pour ce terrain.



MET'MAP, la Météo Aéronautique d'un coup d'oeil ! - Copyright ORBIFLY Décembre 2007 - Disclaimer

ORBIFLY MET'MAP TEAM :

Programmation & Développement : Alexandra Zaïnal
Conception & Développement : Baudouin d'Aumeries
Co-Programmation & Développement : Marc-Olivier Méhu
Soutien technique & logistique : Manuel Goepfert

Contact : metmap@orbifly.com




SOURCES & CREDITS :

   NOAA